createdAt,value
2018-11-13T00:00:45.189Z,25.83
2018-11-13T00:03:14.722Z,20.37
2018-11-13T00:05:44.269Z,21.17
2018-11-13T00:08:13.714Z,19.50
2018-11-13T00:10:43.218Z,22.20
2018-11-13T00:13:12.871Z,19.90
2018-11-13T00:15:42.260Z,17.97
2018-11-13T00:18:11.692Z,17.67
2018-11-13T00:20:41.185Z,18.87
2018-11-13T00:23:10.654Z,17.57
2018-11-13T00:25:40.188Z,15.33
2018-11-13T00:28:09.844Z,18.53
2018-11-13T00:30:39.520Z,15.03
2018-11-13T00:33:09.155Z,13.40
2018-11-13T00:35:38.603Z,12.90
2018-11-13T00:38:08.227Z,12.70
2018-11-13T00:40:38.341Z,14.37
2018-11-13T00:43:08.104Z,12.57
2018-11-13T00:45:37.776Z,10.63
2018-11-13T00:48:07.335Z,12.33
2018-11-13T00:50:36.904Z,11.13
2018-11-13T00:53:06.524Z,12.67
2018-11-13T00:55:36.058Z,10.17
2018-11-13T00:58:05.515Z,10.03
2018-11-13T01:00:35.184Z,12.27
2018-11-13T01:03:04.925Z,10.53
2018-11-13T01:05:34.710Z,9.27
2018-11-13T01:08:04.244Z,6.83
2018-11-13T01:10:33.748Z,7.27
2018-11-13T01:13:03.350Z,6.35
2018-11-13T01:15:32.832Z,4.83
2018-11-13T01:18:02.362Z,3.50
2018-11-13T01:20:31.972Z,3.87
2018-11-13T01:23:01.625Z,2.20
2018-11-13T01:25:31.246Z,2.27
2018-11-13T01:28:00.726Z,1.63
2018-11-13T01:30:30.322Z,1.10
2018-11-13T01:32:59.894Z,1.12
2018-11-13T01:35:29.345Z,1.20
2018-11-13T01:37:58.851Z,0.53
2018-11-13T01:40:28.491Z,0.93
2018-11-13T01:42:58.055Z,0.67
2018-11-13T01:45:27.656Z,1.50
2018-11-13T01:47:57.173Z,0.50
2018-11-13T01:50:26.829Z,1.87
2018-11-13T01:52:56.472Z,2.47
2018-11-13T01:55:26.049Z,1.10
2018-11-13T01:57:55.726Z,2.50
2018-11-13T02:00:25.505Z,0.33
2018-11-13T02:02:56.133Z,1.47
2018-11-13T02:05:26.399Z,0.87
2018-11-13T02:07:56.134Z,2.10
2018-11-13T02:10:25.693Z,0.60
2018-11-13T02:12:55.355Z,0.55
2018-11-13T02:15:24.802Z,1.70
2018-11-13T02:17:54.420Z,0.33
2018-11-13T02:20:25.905Z,0.43
2018-11-13T02:22:55.594Z,0.50
2018-11-13T02:25:25.129Z,0.30
2018-11-13T02:27:54.547Z,4.50
2018-11-13T02:30:24.050Z,1.10
2018-11-13T02:32:53.765Z,0.93
2018-11-13T02:35:23.208Z,0.73
2018-11-13T02:37:52.814Z,0.80
2018-11-13T02:40:22.347Z,1.97
2018-11-13T02:42:51.737Z,0.60
2018-11-13T02:45:21.444Z,0.37
2018-11-13T02:47:50.959Z,3.60
2018-11-13T02:50:21.281Z,1.30
2018-11-13T02:52:50.723Z,1.60
2018-11-13T02:55:20.210Z,0.70
2018-11-13T02:57:49.589Z,1.10
2018-11-13T03:00:20.590Z,1.30
2018-11-13T03:02:50.215Z,2.07
2018-11-13T03:05:20.791Z,5.20
2018-11-13T03:07:51.658Z,28.27
2018-11-13T03:10:21.534Z,0.50
2018-11-13T03:12:51.159Z,2.07
2018-11-13T03:15:22.617Z,56.17
2018-11-13T03:17:52.220Z,16.33
2018-11-13T03:20:21.861Z,7.30
2018-11-13T03:22:51.327Z,2.20
2018-11-13T03:25:21.860Z,3.20
2018-11-13T03:27:51.581Z,2.13
2018-11-13T03:30:27.484Z,0.60
2018-11-13T03:32:57.116Z,2.45
2018-11-13T03:35:26.562Z,2.67
2018-11-13T03:37:55.975Z,2.60
2018-11-13T03:40:25.640Z,3.83
2018-11-13T03:42:55.363Z,2.27
2018-11-13T03:45:24.807Z,2.57
2018-11-13T03:47:54.293Z,1.98
2018-11-13T03:50:25.517Z,1.33
2018-11-13T03:52:55.224Z,1.35
2018-11-13T03:55:24.871Z,1.57
2018-11-13T03:57:54.370Z,1.30
2018-11-13T04:00:24.465Z,3.50
2018-11-13T04:02:53.890Z,2.00
2018-11-13T04:05:23.392Z,0.93
2018-11-13T04:07:54.611Z,1.23
2018-11-13T04:10:24.827Z,2.17
2018-11-13T04:12:54.248Z,0.90
2018-11-13T04:15:24.971Z,3.37
2018-11-13T04:17:54.752Z,2.27
2018-11-13T04:20:24.465Z,1.63
2018-11-13T04:22:54.067Z,1.70
2018-11-13T04:25:24.051Z,3.83
2018-11-13T04:27:53.462Z,2.60
2018-11-13T04:30:22.910Z,1.50
2018-11-13T04:32:52.568Z,1.37
2018-11-13T04:35:22.213Z,3.23
2018-11-13T04:37:51.852Z,2.27
2018-11-13T04:40:22.015Z,2.67
2018-11-13T04:42:53.275Z,3.77
2018-11-13T04:45:23.984Z,3.43
2018-11-13T04:47:53.521Z,4.53
2018-11-13T04:50:23.868Z,1.30
2018-11-13T04:52:53.339Z,4.43
2018-11-13T04:55:22.724Z,3.07
2018-11-13T04:57:52.184Z,5.03
2018-11-13T05:00:23.358Z,3.57
2018-11-13T05:02:52.992Z,1.40
2018-11-13T05:05:22.954Z,5.23
2018-11-13T05:07:56.173Z,5.13
2018-11-13T05:10:26.029Z,1.50
2018-11-13T05:12:55.514Z,3.47
2018-11-13T05:15:25.244Z,3.07
2018-11-13T05:17:54.952Z,1.62
2018-11-13T05:20:24.494Z,5.23
2018-11-13T05:22:54.063Z,2.17
2018-11-13T05:25:23.584Z,3.47
2018-11-13T05:27:53.360Z,3.90
2018-11-13T05:30:23.302Z,4.23
2018-11-13T05:32:52.905Z,4.07
2018-11-13T05:35:23.007Z,1.70
2018-11-13T05:37:52.695Z,6.37
2018-11-13T05:40:23.898Z,1.70
2018-11-13T05:42:53.675Z,2.80
2018-11-13T05:45:24.455Z,2.63
2018-11-13T05:47:54.143Z,2.70
2018-11-13T05:50:23.724Z,2.50
2018-11-13T05:52:54.303Z,2.37
2018-11-13T05:55:23.798Z,1.87
2018-11-13T05:57:53.577Z,2.43
2018-11-13T06:00:28.699Z,2.90
2018-11-13T06:02:58.383Z,2.43
2018-11-13T06:05:28.114Z,11.70
2018-11-13T06:08:03.115Z,9.77
2018-11-13T06:10:32.803Z,9.90
2018-11-13T06:13:02.825Z,12.73
2018-11-13T06:15:32.435Z,5.67
2018-11-13T06:18:02.206Z,7.80
2018-11-13T06:20:31.933Z,17.30
2018-11-13T06:23:01.853Z,8.30
2018-11-13T06:25:31.442Z,11.10
2018-11-13T06:28:01.214Z,13.90
2018-11-13T06:30:30.784Z,10.97
2018-11-13T06:33:00.484Z,5.95
2018-11-13T06:35:30.198Z,5.72
2018-11-13T06:37:59.783Z,5.27
2018-11-13T06:40:29.393Z,8.27
2018-11-13T06:42:59.179Z,6.87
2018-11-13T06:45:28.788Z,3.30
2018-11-13T06:47:58.374Z,4.90
2018-11-13T06:50:27.961Z,3.00
2018-11-13T06:52:57.625Z,3.75
2018-11-13T06:55:34.570Z,3.33
2018-11-13T06:58:04.584Z,6.17
2018-11-13T07:00:34.328Z,7.63
2018-11-13T07:03:03.899Z,3.83
2018-11-13T07:05:33.556Z,2.80
2018-11-13T07:08:03.249Z,4.60
2018-11-13T07:10:32.879Z,3.60
2018-11-13T07:13:02.636Z,6.05
2018-11-13T07:15:32.792Z,3.63
2018-11-13T07:18:03.800Z,5.43
2018-11-13T07:20:35.536Z,2.83
2018-11-13T07:23:05.167Z,3.77
2018-11-13T07:25:34.836Z,6.30
2018-11-13T07:28:06.803Z,3.50
2018-11-13T07:30:36.367Z,2.60
2018-11-13T07:33:06.201Z,2.45
2018-11-13T07:35:35.791Z,2.87
2018-11-13T07:38:05.411Z,3.47
2018-11-13T07:40:35.095Z,4.00
2018-11-13T07:43:05.168Z,15.78
2018-11-13T07:45:34.720Z,8.43
2018-11-13T07:48:04.510Z,12.53
2018-11-13T07:50:34.023Z,11.43
2018-11-13T07:53:03.664Z,15.85
2018-11-13T07:55:33.253Z,14.27
2018-11-13T07:58:03.015Z,15.28
2018-11-13T08:00:32.738Z,8.87
2018-11-13T08:03:13.259Z,2.77
2018-11-13T08:05:42.973Z,2.87
2018-11-13T08:08:13.915Z,2.80
2018-11-13T08:10:43.483Z,2.90
2018-11-13T08:13:13.323Z,2.53
2018-11-13T08:15:42.736Z,2.90
2018-11-13T08:18:12.490Z,2.83
2018-11-13T08:20:42.224Z,2.27
2018-11-13T08:23:12.043Z,3.37
2018-11-13T08:25:41.637Z,3.90
2018-11-13T08:28:11.492Z,2.77
2018-11-13T08:30:41.279Z,2.90
2018-11-13T08:33:11.086Z,2.63
2018-11-13T08:35:40.810Z,2.07
2018-11-13T08:38:10.519Z,2.20
2018-11-13T08:40:40.620Z,2.23
2018-11-13T08:43:10.271Z,2.90
2018-11-13T08:45:39.867Z,2.97
2018-11-13T08:48:09.465Z,1.73
2018-11-13T08:50:39.937Z,1.50
2018-11-13T08:53:09.647Z,1.95
2018-11-13T08:55:39.250Z,1.93
2018-11-13T08:58:08.895Z,3.07
2018-11-13T09:00:38.448Z,1.90
2018-11-13T09:03:08.120Z,3.15
2018-11-13T09:05:37.960Z,2.67
2018-11-13T09:08:07.669Z,2.20
2018-11-13T09:10:38.812Z,2.30
2018-11-13T09:13:08.569Z,2.10
2018-11-13T09:15:38.359Z,2.77
2018-11-13T09:18:08.234Z,2.30
2018-11-13T09:20:37.842Z,2.13
2018-11-13T09:23:07.547Z,2.58
2018-11-13T09:25:37.139Z,4.93
2018-11-13T09:28:06.946Z,2.17
2018-11-13T09:30:36.684Z,3.00
2018-11-13T09:33:06.313Z,2.33
2018-11-13T09:35:35.937Z,2.70
2018-11-13T09:38:05.657Z,2.10
2018-11-13T09:40:35.255Z,4.70
2018-11-13T09:43:05.307Z,2.33
2018-11-13T09:45:35.096Z,3.73
2018-11-13T09:48:05.820Z,6.20
2018-11-13T09:50:35.660Z,2.03
2018-11-13T09:53:05.419Z,5.35
2018-11-13T09:55:35.194Z,3.50
2018-11-13T09:58:05.043Z,2.27
2018-11-13T10:00:35.049Z,3.53
2018-11-13T10:03:05.274Z,3.10
2018-11-13T10:05:34.605Z,4.53
2018-11-13T10:08:04.110Z,2.98
2018-11-13T10:10:33.876Z,3.27
2018-11-13T10:13:03.728Z,3.23
2018-11-13T10:15:33.280Z,3.90
2018-11-13T10:18:03.191Z,2.53
2018-11-13T10:20:32.716Z,3.87
2018-11-13T10:23:02.272Z,2.07
2018-11-13T10:25:31.928Z,3.03
2018-11-13T10:28:01.672Z,2.67
2018-11-13T10:30:31.548Z,2.87
2018-11-13T10:33:01.238Z,3.73
2018-11-13T10:35:30.804Z,3.00
2018-11-13T10:38:00.511Z,3.02
2018-11-13T10:40:30.194Z,2.80
2018-11-13T10:42:59.648Z,2.97
2018-11-13T10:45:29.794Z,3.10
2018-11-13T10:47:59.343Z,3.87
2018-11-13T10:50:28.955Z,1.62
2018-11-13T10:52:58.514Z,2.25
2018-11-13T10:55:28.108Z,4.33
2018-11-13T10:57:57.900Z,2.40
2018-11-13T11:00:32.565Z,2.63
2018-11-13T11:03:07.540Z,3.70
2018-11-13T11:05:37.265Z,3.03
2018-11-13T11:08:09.216Z,2.53
2018-11-13T11:10:38.792Z,3.60
2018-11-13T11:13:08.813Z,5.23
2018-11-13T11:15:38.455Z,3.27
2018-11-13T11:18:08.305Z,4.67
2018-11-13T11:20:38.049Z,7.73
2018-11-13T11:23:07.711Z,6.95
2018-11-13T11:25:37.303Z,4.20
2018-11-13T11:28:06.823Z,6.30
2018-11-13T11:30:36.381Z,5.07
2018-11-13T11:33:06.426Z,6.43
2018-11-13T11:35:36.082Z,7.57
2018-11-13T11:38:06.144Z,3.20
2018-11-13T11:40:35.762Z,3.40
2018-11-13T11:43:05.731Z,3.80
2018-11-13T11:45:35.416Z,3.37
2018-11-13T11:48:05.011Z,3.58
2018-11-13T11:50:34.577Z,4.73
2018-11-13T11:53:04.077Z,4.23
2018-11-13T11:55:33.569Z,5.83
2018-11-13T11:58:03.258Z,3.13
2018-11-13T12:00:34.270Z,4.90
2018-11-13T12:03:04.247Z,4.37
2018-11-13T12:05:33.863Z,7.58
2018-11-13T12:08:03.445Z,3.23
2018-11-13T12:10:33.175Z,3.90
2018-11-13T12:13:02.848Z,3.83
2018-11-13T12:15:32.514Z,4.43
2018-11-13T12:18:02.250Z,3.22
2018-11-13T12:20:31.963Z,4.60
2018-11-13T12:23:01.646Z,4.28
2018-11-13T12:25:31.256Z,6.30
2018-11-13T12:28:00.944Z,2.50
2018-11-13T12:30:30.507Z,5.50
2018-11-13T12:33:00.320Z,3.33
2018-11-13T12:35:30.040Z,3.90
2018-11-13T12:37:59.585Z,6.87
2018-11-13T12:40:29.133Z,5.10
2018-11-13T12:42:58.642Z,4.77
2018-11-13T12:45:28.334Z,6.07
2018-11-13T12:47:57.823Z,5.23
2018-11-13T12:50:31.568Z,7.13
2018-11-13T12:53:01.270Z,5.60
2018-11-13T12:55:31.113Z,6.97
2018-11-13T12:58:00.851Z,6.78
2018-11-13T13:00:30.523Z,6.13
2018-11-13T13:02:59.951Z,8.00
2018-11-13T13:05:29.677Z,6.23
2018-11-13T13:07:59.304Z,6.37
2018-11-13T13:10:28.923Z,6.20
2018-11-13T13:12:58.479Z,5.60
2018-11-13T13:15:28.029Z,9.40
2018-11-13T13:17:57.644Z,5.30
2018-11-13T13:20:27.264Z,5.90
2018-11-13T13:22:56.960Z,7.30
2018-11-13T13:25:26.469Z,11.83
2018-11-13T13:27:56.048Z,10.30
2018-11-13T13:30:26.274Z,12.50
2018-11-13T13:32:55.855Z,10.78
2018-11-13T13:36:01.105Z,11.33
2018-11-13T13:38:31.732Z,13.63
2018-11-13T13:41:02.236Z,11.90
2018-11-13T13:43:32.523Z,12.47
2018-11-13T13:46:02.219Z,9.60
2018-11-13T13:48:31.743Z,12.77
2018-11-13T13:51:01.413Z,11.73
2018-11-13T13:53:30.874Z,12.43
2018-11-13T13:56:00.555Z,9.53
2018-11-13T13:58:30.118Z,11.17
2018-11-13T14:00:59.868Z,16.52
2018-11-13T14:03:29.307Z,11.47
2018-11-13T14:05:58.874Z,11.20
2018-11-13T14:08:28.328Z,11.50
2018-11-13T14:10:57.774Z,12.65
2018-11-13T14:13:27.483Z,13.50
2018-11-13T14:15:56.983Z,11.00
2018-11-13T14:18:26.647Z,10.47
2018-11-13T14:20:56.295Z,14.53
2018-11-13T14:23:25.765Z,13.30
2018-11-13T14:25:55.251Z,12.40
2018-11-13T14:28:24.881Z,12.43
2018-11-13T14:30:54.532Z,11.33
2018-11-13T14:33:24.031Z,9.33
2018-11-13T14:35:53.489Z,12.77
2018-11-13T14:38:22.995Z,14.97
2018-11-13T14:40:52.565Z,13.57
2018-11-13T14:43:22.071Z,12.83
2018-11-13T14:45:51.511Z,11.63
2018-11-13T14:48:21.025Z,13.13
2018-11-13T14:50:54.061Z,13.87
2018-11-13T14:53:23.812Z,14.80
2018-11-13T14:55:53.432Z,11.57
2018-11-13T14:58:22.939Z,15.23
2018-11-13T15:00:52.512Z,13.77
2018-11-13T15:03:22.139Z,13.53
2018-11-13T15:05:51.634Z,17.80
2018-11-13T15:08:21.056Z,15.57
2018-11-13T15:10:51.660Z,16.87
2018-11-13T15:13:22.366Z,16.67
2018-11-13T15:15:51.959Z,17.10
2018-11-13T15:18:21.622Z,23.30
2018-11-13T15:20:52.337Z,14.73
2018-11-13T15:23:21.862Z,20.07
2018-11-13T15:25:51.355Z,23.00
2018-11-13T15:28:20.819Z,19.53
2018-11-13T15:30:51.003Z,18.30
2018-11-13T15:33:23.058Z,20.47
2018-11-13T15:35:52.595Z,22.27
2018-11-13T15:38:22.025Z,21.30
2018-11-13T15:40:51.581Z,21.77
2018-11-13T15:43:21.316Z,20.67
2018-11-13T15:45:50.972Z,24.40
2018-11-13T15:48:20.731Z,20.97
2018-11-13T15:50:50.595Z,21.63
2018-11-13T15:53:20.220Z,25.70
2018-11-13T15:55:50.721Z,28.37
2018-11-13T15:58:20.445Z,23.70
2018-11-13T16:00:50.805Z,20.27
2018-11-13T16:03:24.653Z,29.30
2018-11-13T16:05:55.279Z,24.50
2018-11-13T16:08:24.733Z,25.23
2018-11-13T16:10:54.737Z,27.27
2018-11-13T16:13:24.372Z,25.13
2018-11-13T16:15:53.901Z,25.87
2018-11-13T16:18:24.904Z,24.27
2018-11-13T16:20:54.450Z,23.63
2018-11-13T16:23:24.159Z,24.00
2018-11-13T16:25:53.799Z,20.50
2018-11-13T16:28:23.557Z,23.93
2018-11-13T16:30:53.280Z,25.23
2018-11-13T16:33:22.930Z,24.30
2018-11-13T16:35:52.403Z,27.93
2018-11-13T16:38:22.262Z,25.53
2018-11-13T16:40:51.864Z,23.00
2018-11-13T16:43:21.471Z,26.20
2018-11-13T16:45:51.156Z,26.10
2018-11-13T16:48:20.842Z,27.23
2018-11-13T16:50:50.886Z,27.50
2018-11-13T16:53:20.483Z,24.90
2018-11-13T16:56:03.868Z,24.18
2018-11-13T16:58:33.611Z,26.33
2018-11-13T17:01:03.397Z,25.57
2018-11-13T17:03:33.329Z,20.12
2018-11-13T17:06:03.144Z,26.90
2018-11-13T17:08:32.819Z,27.03
2018-11-13T17:11:05.195Z,23.07
2018-11-13T17:13:41.411Z,27.40
2018-11-13T17:16:11.118Z,26.30
2018-11-13T17:18:40.958Z,23.13
2018-11-13T17:21:10.644Z,20.63
2018-11-13T17:23:40.288Z,26.37
2018-11-13T17:26:09.739Z,24.97
2018-11-13T17:28:39.432Z,22.77
2018-11-13T17:31:09.484Z,23.33
2018-11-13T17:33:39.222Z,29.17
2018-11-13T17:36:09.000Z,23.32
2018-11-13T17:38:38.993Z,24.93
2018-11-13T17:41:08.707Z,22.40
2018-11-13T17:43:38.442Z,25.03
2018-11-13T17:46:08.224Z,25.97
2018-11-13T17:48:39.499Z,28.60
2018-11-13T17:51:11.044Z,25.48
2018-11-13T17:53:42.597Z,27.20
2018-11-13T17:56:14.107Z,29.03
2018-11-13T17:58:44.889Z,26.03
2018-11-13T18:01:15.287Z,25.60
2018-11-13T18:03:45.001Z,30.87
2018-11-13T18:06:14.941Z,29.17
2018-11-13T18:08:44.889Z,28.50
2018-11-13T18:11:14.638Z,28.60
2018-11-13T18:13:44.524Z,29.67
2018-11-13T18:16:14.288Z,28.07
2018-11-13T18:18:44.830Z,29.67
2018-11-13T18:21:15.111Z,28.60
2018-11-13T18:23:44.849Z,28.00
2018-11-13T18:26:14.864Z,26.13
2018-11-13T18:28:44.850Z,26.80
2018-11-13T18:31:14.696Z,24.73
2018-11-13T18:33:44.644Z,23.63
2018-11-13T18:36:14.539Z,26.97
2018-11-13T18:38:45.238Z,29.33
2018-11-13T18:41:15.047Z,28.87
2018-11-13T18:43:44.853Z,29.57
2018-11-13T18:46:14.472Z,31.43
2018-11-13T18:48:44.253Z,30.53
2018-11-13T18:51:13.815Z,31.67
2018-11-13T18:53:44.456Z,33.10
2018-11-13T18:56:14.154Z,32.30
2018-11-13T18:58:43.860Z,32.80
2018-11-13T19:01:14.537Z,31.37
2018-11-13T19:03:45.502Z,30.63
2018-11-13T19:06:15.282Z,29.23
2018-11-13T19:08:45.057Z,30.03
2018-11-13T19:11:18.393Z,27.43
2018-11-13T19:13:48.889Z,28.50
2018-11-13T19:16:18.678Z,27.37
2018-11-13T19:18:49.064Z,30.07
2018-11-13T19:21:19.628Z,30.70
2018-11-13T19:23:49.296Z,26.40
2018-11-13T19:26:19.147Z,25.80
2018-11-13T19:28:49.145Z,26.40
2018-11-13T19:31:22.427Z,30.13
2018-11-13T19:33:52.845Z,31.57
2018-11-13T19:36:22.817Z,28.63
2018-11-13T19:38:52.414Z,28.23
2018-11-13T19:41:22.238Z,25.43
2018-11-13T19:43:52.090Z,30.20
2018-11-13T19:46:22.899Z,27.73
2018-11-13T19:48:53.103Z,29.53
2018-11-13T19:51:23.200Z,29.97
2018-11-13T19:53:53.106Z,29.93
2018-11-13T19:56:22.779Z,28.13
2018-11-13T19:58:52.351Z,30.80
2018-11-13T20:01:22.559Z,37.43
2018-11-13T20:03:52.283Z,38.33
2018-11-13T20:06:22.392Z,30.77
2018-11-13T20:08:51.939Z,30.40
2018-11-13T20:11:21.790Z,31.47
2018-11-13T20:13:51.742Z,31.97
2018-11-13T20:16:21.428Z,32.70
2018-11-13T20:18:51.562Z,31.20
2018-11-13T20:21:21.230Z,31.73
2018-11-13T20:23:51.638Z,29.05
2018-11-13T20:26:21.622Z,28.40
2018-11-13T20:28:51.810Z,26.07
2018-11-13T20:31:21.733Z,31.37
2018-11-13T20:33:51.473Z,26.20
2018-11-13T20:36:21.141Z,29.17
2018-11-13T20:38:51.459Z,26.40
2018-11-13T20:41:21.534Z,26.82
2018-11-13T20:43:51.983Z,25.80
2018-11-13T20:46:21.513Z,29.57
2018-11-13T20:48:52.303Z,27.27
2018-11-13T20:51:22.217Z,27.50
2018-11-13T20:53:51.907Z,28.20
2018-11-13T20:56:21.494Z,29.47
2018-11-13T20:58:51.680Z,25.68
2018-11-13T21:01:21.531Z,23.57
2018-11-13T21:03:52.139Z,23.55
2018-11-13T21:06:21.793Z,24.20
2018-11-13T21:08:51.578Z,29.53
2018-11-13T21:11:21.453Z,24.23
2018-11-13T21:13:51.647Z,29.60
2018-11-13T21:16:21.666Z,26.63
2018-11-13T21:18:51.837Z,25.97
2018-11-13T21:21:21.655Z,31.57
2018-11-13T21:23:51.933Z,28.85
2018-11-13T21:26:21.561Z,29.53
2018-11-13T21:28:51.692Z,26.30
2018-11-13T21:31:21.474Z,30.13
2018-11-13T21:33:51.796Z,28.90
2018-11-13T21:36:21.588Z,27.93
2018-11-13T21:38:52.123Z,30.20
2018-11-13T21:41:21.857Z,25.73
2018-11-13T21:43:51.734Z,26.90
2018-11-13T21:46:21.426Z,30.63
2018-11-13T21:48:51.733Z,27.87
2018-11-13T21:51:21.555Z,27.53
2018-11-13T21:53:51.778Z,29.82
2018-11-13T21:56:21.398Z,28.67
2018-11-13T21:58:51.853Z,27.93
2018-11-13T22:01:21.469Z,26.60
2018-11-13T22:03:51.765Z,27.52
2018-11-13T22:06:21.429Z,28.70
2018-11-13T22:08:51.836Z,29.17
2018-11-13T22:11:21.682Z,23.33
2018-11-13T22:13:51.724Z,22.58
2018-11-13T22:16:21.409Z,26.60
2018-11-13T22:18:51.968Z,22.42
2018-11-13T22:21:21.820Z,28.87
2018-11-13T22:23:51.816Z,24.93
2018-11-13T22:26:21.627Z,24.13
2018-11-13T22:28:52.320Z,26.23
2018-11-13T22:31:21.476Z,26.47
2018-11-13T22:33:52.159Z,26.47
2018-11-13T22:36:21.771Z,24.60
2018-11-13T22:38:51.796Z,27.27
2018-11-13T22:41:21.449Z,27.10
2018-11-13T22:43:51.756Z,27.17
2018-11-13T22:46:21.435Z,25.47
2018-11-13T22:48:51.823Z,25.93
2018-11-13T22:51:21.488Z,24.07
2018-11-13T22:53:51.803Z,25.90
2018-11-13T22:56:21.340Z,24.90
2018-11-13T22:58:51.870Z,24.73
2018-11-13T23:01:21.458Z,26.00
2018-11-13T23:03:51.913Z,23.53
2018-11-13T23:06:21.623Z,24.40
2018-11-13T23:08:51.691Z,30.03
2018-11-13T23:11:21.312Z,27.13
2018-11-13T23:13:51.852Z,26.33
2018-11-13T23:16:21.351Z,25.30
2018-11-13T23:18:51.676Z,27.27
2018-11-13T23:21:21.123Z,26.23
2018-11-13T23:23:51.566Z,22.90
2018-11-13T23:26:21.274Z,22.03
2018-11-13T23:28:51.719Z,22.37
2018-11-13T23:31:21.352Z,22.57
2018-11-13T23:33:51.941Z,24.45
2018-11-13T23:36:21.493Z,25.33
2018-11-13T23:38:51.771Z,23.10
2018-11-13T23:41:21.387Z,28.93
2018-11-13T23:43:51.818Z,26.97
2018-11-13T23:46:21.440Z,24.10
2018-11-13T23:48:51.767Z,27.00
2018-11-13T23:51:21.441Z,25.70
2018-11-13T23:53:51.904Z,29.70
2018-11-13T23:56:21.594Z,22.47
2018-11-13T23:58:52.030Z,21.97
